ZSW weather

Prince Rupert/Seal Cove Seaplane Base
British Columbia, Canada

Public forecast

Using degrees Celsius for public forecast. Weather courtesy of forecast.io.

METAR (pilot weather report)

Closest report is Prince Rupert Airport, 6.3 nm (11.7 km) WSW. Retrieved 2019/09/15 08:00 UTC (40 minutes ago):

CYPR 150800Z AUTO 05003KT 9SM OVC075 11/10 A2967 RMK SLP048

TAF (pilot weather forecast)

Closest forecast is Prince Rupert Airport, 6.3 nm (11.7 km) WSW. Retrieved 2019/09/15 07:39 UTC (1 hour ago):

TAF CYPR 150638Z 1507/1519 VRB03KT P6SM SCT030 OVC070 FM151200 08005KT P6SM SCT007 BKN150 RMK FCST BASED ON AUTO OBS. NXT FCST BY 151300Z